createdAt,value
2022-12-18T00:00:09.876Z,5.5
2022-12-18T00:10:09.926Z,5.5
2022-12-18T00:20:10.038Z,5.5
2022-12-18T00:30:09.909Z,5
2022-12-18T00:40:10.051Z,5
2022-12-18T00:50:09.898Z,5
2022-12-18T01:00:10.078Z,4.5
2022-12-18T01:10:00.142Z,4.5
2022-12-18T01:20:00.271Z,4.5
2022-12-18T01:30:00.180Z,4.5
2022-12-18T01:40:00.269Z,4.5
2022-12-18T01:50:00.372Z,4.5
2022-12-18T02:00:00.228Z,4.5
2022-12-18T02:10:00.341Z,4
2022-12-18T02:20:00.368Z,4
2022-12-18T02:30:00.336Z,4
2022-12-18T02:40:00.380Z,3.5
2022-12-18T02:50:00.370Z,3.5
2022-12-18T03:00:00.369Z,3.5
2022-12-18T03:10:00.336Z,3.5
2022-12-18T03:20:00.649Z,3.5
2022-12-18T03:30:00.336Z,3.5
2022-12-18T03:40:06.370Z,3.5
2022-12-18T03:50:00.440Z,3.5
2022-12-18T04:00:00.402Z,3.5
2022-12-18T04:10:00.429Z,3.5
2022-12-18T04:20:00.432Z,3.5
2022-12-18T04:30:00.444Z,3.5
2022-12-18T04:40:00.424Z,3.5
2022-12-18T04:50:00.503Z,3.5
2022-12-18T05:00:00.460Z,3.5
2022-12-18T05:10:00.482Z,3.5
2022-12-18T05:20:00.469Z,3.5
2022-12-18T05:30:00.516Z,3.5
2022-12-18T05:40:00.484Z,3.5
2022-12-18T05:50:00.689Z,3.5
2022-12-18T06:00:00.464Z,3.5
2022-12-18T06:10:00.701Z,3.5
2022-12-18T06:20:00.473Z,3.5
2022-12-18T06:30:00.702Z,3.5
2022-12-18T06:40:00.465Z,3.5
2022-12-18T06:50:00.683Z,3.5
2022-12-18T07:00:00.476Z,3.5
2022-12-18T07:10:00.690Z,3.5
2022-12-18T07:20:00.711Z,3.5
2022-12-18T07:30:00.701Z,3.5
2022-12-18T07:40:00.652Z,3.5
2022-12-18T07:50:00.680Z,3.5
2022-12-18T08:00:00.679Z,3.5
2022-12-18T08:10:00.708Z,3.5
2022-12-18T08:20:00.646Z,3.5
2022-12-18T08:30:00.675Z,3.5
2022-12-18T08:40:00.671Z,4
2022-12-18T08:50:00.882Z,3.5
2022-12-18T09:00:00.664Z,4
2022-12-18T09:10:00.889Z,4
2022-12-18T09:20:00.630Z,4
2022-12-18T09:30:06.656Z,4
2022-12-18T09:40:00.752Z,4
2022-12-18T09:50:00.798Z,4
2022-12-18T10:00:00.783Z,4
2022-12-18T10:10:00.787Z,4
2022-12-18T10:20:06.490Z,4
2022-12-18T10:30:00.978Z,4
2022-12-18T10:40:00.882Z,4
2022-12-18T10:50:06.648Z,4
2022-12-18T11:00:01.091Z,4
2022-12-18T11:10:00.777Z,4
2022-12-18T11:20:00.963Z,4
2022-12-18T11:30:00.774Z,4
2022-12-18T11:40:00.955Z,4
2022-12-18T11:50:00.944Z,4
2022-12-18T12:00:06.770Z,4
2022-12-18T12:10:01.071Z,4
2022-12-18T12:20:00.862Z,4
2022-12-18T12:30:01.061Z,4
2022-12-18T12:40:04.556Z,4
2022-12-18T12:50:01.074Z,4
2022-12-18T13:00:00.816Z,4
2022-12-18T13:10:01.032Z,4
2022-12-18T13:20:01.620Z,4
2022-12-18T13:30:01.758Z,4
2022-12-18T13:40:01.011Z,4
2022-12-18T13:50:01.697Z,4
2022-12-18T14:00:01.696Z,3.5
2022-12-18T14:10:12.432Z,4
2022-12-18T14:20:01.005Z,4
2022-12-18T14:30:01.044Z,4
2022-12-18T14:40:04.561Z,4
2022-12-18T14:50:01.275Z,4
2022-12-18T15:00:01.023Z,4
2022-12-18T15:10:01.253Z,4
2022-12-18T15:20:01.039Z,4
2022-12-18T15:30:01.282Z,4
2022-12-18T15:40:01.023Z,4
2022-12-18T15:50:07.058Z,4
2022-12-18T16:00:01.409Z,4
2022-12-18T16:10:02.287Z,4.5
2022-12-18T16:20:01.350Z,5
2022-12-18T16:30:01.144Z,5
2022-12-18T16:40:01.339Z,5
2022-12-18T16:50:01.099Z,5
2022-12-18T17:00:05.408Z,5
2022-12-18T17:10:01.156Z,5
2022-12-18T17:20:01.375Z,5
2022-12-18T17:30:01.109Z,5
2022-12-18T17:40:01.386Z,5
2022-12-18T17:50:01.182Z,5
2022-12-18T18:00:01.822Z,5
2022-12-18T18:10:01.162Z,5
2022-12-18T18:20:06.738Z,6
2022-12-18T18:30:01.523Z,6
2022-12-18T18:40:01.253Z,6
2022-12-18T18:50:01.487Z,6
2022-12-18T19:00:01.250Z,6
2022-12-18T19:10:04.333Z,6
2022-12-18T19:20:01.412Z,7
2022-12-18T19:30:01.474Z,7
2022-12-18T19:40:02.254Z,7
2022-12-18T19:50:01.484Z,7
2022-12-18T20:00:01.432Z,7
2022-12-18T20:10:05.522Z,7
2022-12-18T20:20:01.415Z,7
2022-12-18T20:30:06.845Z,7
2022-12-18T20:40:01.527Z,7
2022-12-18T20:50:01.278Z,7
2022-12-18T21:00:01.526Z,7
2022-12-18T21:10:01.517Z,7
2022-12-18T21:20:01.517Z,7
2022-12-18T21:30:01.519Z,8
2022-12-18T21:40:01.499Z,8
2022-12-18T21:50:01.465Z,8
2022-12-18T22:00:01.523Z,8
2022-12-18T22:10:01.960Z,8
2022-12-18T22:20:01.489Z,8
2022-12-18T22:30:01.460Z,8
2022-12-18T22:40:02.805Z,8
2022-12-18T22:50:01.467Z,9
2022-12-18T23:00:01.720Z,9
2022-12-18T23:10:01.552Z,9
2022-12-18T23:20:01.671Z,9
2022-12-18T23:30:01.443Z,9
2022-12-18T23:40:01.692Z,9
2022-12-18T23:50:01.671Z,9
